Time;durP1;ratioP1;P1;durP2;ratioP2;P2;SDS_P1;SDS_P2;PMS_P1;PMS_P2;Temp;Humidity;BMP_temperature;BMP_pressure;BME280_temperature;BME280_humidity;BME280_pressure;Samples;Min_cycle;Max_cycle;Signal;HPM_P1;HPM_P2
2021/12/25 00:01:41;;;;;;;;;;;;;;;5.04;54.36;94288.53;4987023;28;20017;-65
2021/12/25 00:04:07;;;;;;;;;;;;;;;4.82;54.43;94290.97;4986688;28;19970;-66
2021/12/25 00:06:32;;;;;;;;;;;;;;;5.01;53.93;94287.06;4992894;28;19990;-65
2021/12/25 00:08:58;;;;;;;;;;;;;;;5.25;53.84;94289.72;4989923;28;20566;-64
2021/12/25 00:11:23;;;;;;;;;;;;;;;5.38;53.38;94294.41;4994762;28;20388;-65
2021/12/25 00:13:48;;;;;;;;;;;;;;;4.75;55.31;94296.13;4988971;28;20355;-66
2021/12/25 00:16:13;;;;;;;;;;;;;;;4.90;54.42;94290.13;4982756;28;20331;-66
2021/12/25 00:18:39;;;;;;;;;;;;;;;4.57;55.28;94293.75;4987366;28;19990;-66
2021/12/25 00:21:04;;;;;;;;;;;;;;;5.13;54.23;94289.34;4984227;28;20407;-65
2021/12/25 00:23:29;;;;;;;;;;;;;;;5.08;53.88;94285.41;4993103;28;19990;-65
2021/12/25 00:26:03;;;;;;;;;;;;;;;5.23;53.05;94289.91;4993578;28;19974;-65
2021/12/25 00:33:47;;;;;;;;;;;;;;;5.49;53.24;94288.72;4984483;28;19966;-65
2021/12/25 00:36:13;;;;;;;;;;;;;;;5.34;53.41;94292.13;4988499;28;20366;-65
2021/12/25 00:38:38;;;;;;;;;;;;;;;4.87;53.95;94291.28;4996892;28;20023;-65
2021/12/25 00:41:04;;;;;;;;;;;;;;;5.00;53.41;94297.81;4991250;28;20397;-66
2021/12/25 00:43:29;;;;;;;;;;;;;;;5.25;54.16;94290.56;4987245;28;20358;-66
2021/12/25 00:45:54;;;;;;;;;;;;;;;5.43;53.97;94281.50;4989634;28;19989;-66
2021/12/25 00:48:19;;;;;;;;;;;;;;;5.61;53.33;94283.78;4983950;28;20178;-66
2021/12/25 00:50:45;;;;;;;;;;;;;;;5.56;52.86;94272.97;4983698;28;20244;-64
2021/12/25 00:53:10;;;;;;;;;;;;;;;5.69;53.28;94269.72;4994042;28;20559;-65
2021/12/25 00:55:35;;;;;;;;;;;;;;;5.82;52.62;94274.38;4985718;28;20463;-66
2021/12/25 00:58:00;;;;;;;;;;;;;;;5.91;51.79;94273.28;4995662;28;19986;-66
2021/12/25 01:00:26;;;;;;;;;;;;;;;5.95;52.07;94273.75;4991455;28;20061;-65
2021/12/25 01:02:51;;;;;;;;;;;;;;;6.17;51.51;94274.66;4987488;28;20489;-65
2021/12/25 01:05:16;;;;;;;;;;;;;;;6.23;50.70;94273.91;4984283;28;19973;-65
2021/12/25 01:07:41;;;;;;;;;;;;;;;6.30;50.26;94275.81;4992753;28;19997;-65
2021/12/25 01:10:09;;;;;;;;;;;;;;;6.29;49.92;94276.81;4993874;28;20101;-65
2021/12/25 01:12:49;;;;;;;;;;;;;;;5.95;50.19;94279.81;4982981;28;19962;-65
2021/12/25 01:15:16;;;;;;;;;;;;;;;5.77;50.79;94282.00;4979535;28;20532;-66
2021/12/25 01:18:09;;;;;;;;;;;;;;;5.53;51.64;94282.06;4979879;28;19970;-66
2021/12/25 01:21:00;;;;;;;;;;;;;;;5.55;52.25;94284.53;4984038;28;19998;-66
2021/12/25 01:26:15;;;;;;;;;;;;;;;5.48;52.07;94277.31;4989303;28;19976;-64
2021/12/25 01:31:35;;;;;;;;;;;;;;;5.78;52.04;94267.81;4989529;28;19993;-66
2021/12/25 01:36:49;;;;;;;;;;;;;;;5.86;50.92;94270.38;4985178;28;20028;-64
2021/12/25 01:39:21;;;;;;;;;;;;;;;5.95;50.88;94274.53;4975708;28;20029;-65
2021/12/25 01:49:51;;;;;;;;;;;;;;;6.10;50.75;94271.09;4982650;28;20205;-64
2021/12/25 01:52:16;;;;;;;;;;;;;;;6.21;50.10;94268.00;4979279;28;20428;-65
2021/12/25 01:54:42;;;;;;;;;;;;;;;6.17;49.91;94269.38;4976288;28;19997;-65
2021/12/25 01:57:07;;;;;;;;;;;;;;;6.11;49.83;94273.56;4983638;28;20446;-63
2021/12/25 01:59:33;;;;;;;;;;;;;;;6.16;49.95;94272.19;4983367;28;20169;-65
2021/12/25 02:01:58;;;;;;;;;;;;;;;6.18;49.80;94272.81;4982765;28;19994;-64
2021/12/25 02:04:23;;;;;;;;;;;;;;;6.30;49.52;94265.25;4983085;28;20004;-65
2021/12/25 02:06:49;;;;;;;;;;;;;;;6.33;49.45;94275.47;4983224;28;20037;-65
2021/12/25 02:09:14;;;;;;;;;;;;;;;6.38;49.31;94278.34;4983510;28;19978;-64
2021/12/25 02:11:39;;;;;;;;;;;;;;;6.41;49.08;94271.88;4982944;28;19986;-65
2021/12/25 02:14:04;;;;;;;;;;;;;;;6.45;48.95;94273.13;4982753;28;20005;-65
2021/12/25 02:16:39;;;;;;;;;;;;;;;6.50;48.54;94266.31;4983126;28;19978;-64
2021/12/25 02:19:13;;;;;;;;;;;;;;;6.50;48.40;94261.03;4982699;28;20051;-66
2021/12/25 02:21:40;;;;;;;;;;;;;;;6.28;48.25;94260.13;4982543;28;20000;-65
2021/12/25 02:24:06;;;;;;;;;;;;;;;6.19;48.46;94263.91;4983907;28;20829;-65
2021/12/25 02:26:32;;;;;;;;;;;;;;;6.03;49.22;94252.50;4986416;28;20239;-66
2021/12/25 02:28:57;;;;;;;;;;;;;;;5.90;48.98;94255.78;4986680;28;20448;-66
2021/12/25 02:31:23;;;;;;;;;;;;;;;5.90;49.12;94257.59;4986428;28;20490;-66
2021/12/25 02:33:48;;;;;;;;;;;;;;;5.98;48.61;94246.94;4986142;28;20052;-64
2021/12/25 02:36:13;;;;;;;;;;;;;;;6.03;48.63;94251.69;4986848;28;19970;-65
2021/12/25 02:38:38;;;;;;;;;;;;;;;6.06;48.98;94248.69;4986111;28;20018;-65
2021/12/25 02:41:04;;;;;;;;;;;;;;;6.12;47.98;94240.84;4986632;28;19998;-66
2021/12/25 02:43:30;;;;;;;;;;;;;;;6.18;47.96;94236.63;4986844;28;20526;-66
2021/12/25 02:45:55;;;;;;;;;;;;;;;6.20;47.81;94239.94;4986145;28;20466;-64
2021/12/25 02:48:21;;;;;;;;;;;;;;;6.19;47.92;94246.19;4982364;28;20018;-66
2021/12/25 02:50:46;;;;;;;;;;;;;;;6.21;48.22;94241.56;4986149;28;20266;-66
2021/12/25 02:53:12;;;;;;;;;;;;;;;6.21;48.26;94241.56;4986552;28;20390;-64
2021/12/25 02:55:37;;;;;;;;;;;;;;;6.23;47.83;94239.53;4985810;28;19986;-65
2021/12/25 02:58:02;;;;;;;;;;;;;;;6.28;47.59;94240.81;4985913;28;19974;-66
2021/12/25 03:00:29;;;;;;;;;;;;;;;6.33;47.40;94235.81;4986559;28;19990;-64
2021/12/25 03:02:54;;;;;;;;;;;;;;;6.34;47.68;94240.91;4984683;28;20089;-66
2021/12/25 03:05:19;;;;;;;;;;;;;;;6.39;47.07;94235.03;4986310;28;20206;-66
2021/12/25 03:07:45;;;;;;;;;;;;;;;6.45;46.91;94236.13;4986382;28;20073;-66
2021/12/25 03:10:11;;;;;;;;;;;;;;;6.50;46.83;94239.09;4986011;28;19998;-66
2021/12/25 03:12:47;;;;;;;;;;;;;;;6.49;46.70;94230.31;4985979;28;19966;-65
2021/12/25 03:15:16;;;;;;;;;;;;;;;6.49;46.80;94237.41;4986191;28;20463;-65
2021/12/25 03:17:41;;;;;;;;;;;;;;;6.51;46.61;94240.72;4986218;28;20017;-66
2021/12/25 03:20:07;;;;;;;;;;;;;;;6.52;46.61;94238.91;4980649;28;20006;-65
2021/12/25 03:22:32;;;;;;;;;;;;;;;6.53;46.67;94237.88;4986246;28;19994;-66
2021/12/25 03:24:58;;;;;;;;;;;;;;;6.54;46.58;94226.28;4979329;28;20531;-65
2021/12/25 03:27:23;;;;;;;;;;;;;;;6.50;47.02;94237.25;4985809;28;20108;-66
2021/12/25 03:29:48;;;;;;;;;;;;;;;6.52;46.71;94237.06;4984364;28;19973;-66
2021/12/25 03:32:13;;;;;;;;;;;;;;;6.43;46.60;94232.88;4985887;28;19988;-66
2021/12/25 03:34:39;;;;;;;;;;;;;;;6.34;46.73;94246.19;4985751;28;20060;-65
2021/12/25 03:37:04;;;;;;;;;;;;;;;6.33;46.85;94243.72;4986081;28;19977;-66
2021/12/25 03:39:29;;;;;;;;;;;;;;;6.23;47.04;94250.09;4984673;28;20202;-65
2021/12/25 03:41:57;;;;;;;;;;;;;;;6.10;47.23;94242.84;4985697;28;19996;-66
2021/12/25 03:44:22;;;;;;;;;;;;;;;6.10;47.17;94244.66;4983918;28;20068;-64
2021/12/25 03:46:47;;;;;;;;;;;;;;;6.03;47.29;94251.69;4985489;28;20064;-65
2021/12/25 03:49:28;;;;;;;;;;;;;;;5.98;47.42;94247.78;4985765;28;19974;-65
2021/12/25 04:00:05;;;;;;;;;;;;;;;5.64;48.42;94254.41;4984761;28;20366;-65
2021/12/25 04:02:37;;;;;;;;;;;;;;;5.55;48.24;94251.00;4985361;28;20401;-65
2021/12/25 04:05:04;;;;;;;;;;;;;;;5.50;48.14;94255.22;4985691;28;19985;-64
2021/12/25 04:10:02;;;;;;;;;;;;;;;5.35;48.80;94245.44;4984953;28;20069;-66
2021/12/25 04:12:27;;;;;;;;;;;;;;;5.14;49.46;94240.84;4985378;28;19985;-64
2021/12/25 04:14:52;;;;;;;;;;;;;;;5.13;49.06;94249.75;4985394;28;19990;-66
2021/12/25 04:17:17;;;;;;;;;;;;;;;5.16;48.70;94242.28;4985346;28;20172;-66
2021/12/25 04:19:43;;;;;;;;;;;;;;;5.08;48.81;94248.47;4982540;28;20022;-65
2021/12/25 04:22:15;;;;;;;;;;;;;;;5.00;49.35;94250.31;4984481;28;20324;-65
2021/12/25 04:24:42;;;;;;;;;;;;;;;4.96;49.32;94244.56;4985430;28;20419;-65
2021/12/25 04:27:12;;;;;;;;;;;;;;;4.92;49.56;94249.38;4984902;28;19997;-64
2021/12/25 04:29:44;;;;;;;;;;;;;;;4.87;50.05;94240.34;4985158;28;20375;-65
2021/12/25 04:48:53;;;;;;;;;;;;;;;4.31;51.13;94248.25;4983872;28;20032;-65
2021/12/25 05:01:47;;;;;;;;;;;;;;;4.03;51.76;94259.25;4983839;28;19993;-66
2021/12/25 05:04:21;;;;;;;;;;;;;;;3.86;51.40;94261.13;4984269;28;20124;-66
2021/12/25 05:06:48;;;;;;;;;;;;;;;3.91;52.65;94266.69;4984293;28;20039;-65
2021/12/25 05:09:13;;;;;;;;;;;;;;;3.85;51.81;94270.00;4983025;28;19970;-66
2021/12/25 05:11:38;;;;;;;;;;;;;;;3.85;52.38;94270.00;4983508;28;19986;-65
2021/12/25 05:14:03;;;;;;;;;;;;;;;3.92;52.86;94268.31;4984253;28;19986;-65
2021/12/25 05:16:29;;;;;;;;;;;;;;;3.95;52.83;94264.56;4984786;28;20084;-65
2021/12/25 05:18:54;;;;;;;;;;;;;;;3.94;52.46;94266.34;4983969;28;20085;-66
2021/12/25 05:21:20;;;;;;;;;;;;;;;3.92;52.83;94270.97;4984229;28;20045;-66
2021/12/25 05:23:45;;;;;;;;;;;;;;;3.91;52.74;94274.59;4984376;28;20375;-66
2021/12/25 05:26:10;;;;;;;;;;;;;;;3.93;52.18;94264.72;4984202;28;20343;-66
2021/12/25 05:28:40;;;;;;;;;;;;;;;3.93;52.52;94267.34;4984778;28;20009;-65
2021/12/25 05:31:06;;;;;;;;;;;;;;;3.94;52.37;94268.16;4984494;28;19990;-65
2021/12/25 05:33:31;;;;;;;;;;;;;;;3.90;50.67;94266.84;4984491;28;19985;-66
2021/12/25 05:35:57;;;;;;;;;;;;;;;3.87;48.72;94270.66;4984696;28;19994;-65
2021/12/25 05:38:22;;;;;;;;;;;;;;;3.81;52.86;94272.16;4983467;28;20386;-65
2021/12/25 05:40:47;;;;;;;;;;;;;;;3.87;52.62;94275.91;4984350;28;20310;-66
2021/12/25 05:43:13;;;;;;;;;;;;;;;3.83;53.21;94264.09;4984369;28;19998;-65
2021/12/25 05:45:38;;;;;;;;;;;;;;;3.88;52.36;94260.94;4984961;28;19971;-65
2021/12/25 05:48:03;;;;;;;;;;;;;;;3.84;53.14;94268.34;4982310;28;19982;-65
2021/12/25 05:50:29;;;;;;;;;;;;;;;3.79;52.94;94274.16;4984018;28;20089;-66
2021/12/25 05:52:55;;;;;;;;;;;;;;;3.80;53.07;94273.16;4984807;28;20028;-64
2021/12/25 05:55:21;;;;;;;;;;;;;;;3.76;52.70;94269.22;4983797;28;20005;-66
2021/12/25 05:57:46;;;;;;;;;;;;;;;3.72;52.80;94273.16;4984111;28;19974;-65
2021/12/25 06:00:12;;;;;;;;;;;;;;;3.61;53.35;94263.00;4984141;28;20006;-65
2021/12/25 06:02:37;;;;;;;;;;;;;;;3.65;53.29;94262.50;4984088;28;20025;-66
2021/12/25 06:05:04;;;;;;;;;;;;;;;3.56;53.11;94263.47;4984541;28;19970;-65
2021/12/25 06:07:29;;;;;;;;;;;;;;;3.56;53.80;94266.13;4981693;28;19986;-66
2021/12/25 06:09:54;;;;;;;;;;;;;;;3.54;53.54;94273.38;4983858;28;20005;-66
2021/12/25 06:12:20;;;;;;;;;;;;;;;3.52;52.04;94270.91;4984366;28;19981;-64
2021/12/25 06:14:47;;;;;;;;;;;;;;;3.52;53.32;94275.34;4983447;28;20434;-65
2021/12/25 06:17:12;;;;;;;;;;;;;;;3.51;53.46;94263.19;5002799;28;19985;-66
2021/12/25 06:19:37;;;;;;;;;;;;;;;3.53;53.78;94272.53;4987078;28;20374;-66
2021/12/25 06:22:02;;;;;;;;;;;;;;;3.51;53.29;94274.50;4987375;28;20507;-66
2021/12/25 06:24:29;;;;;;;;;;;;;;;3.49;52.83;94275.66;4987687;28;19985;-64
2021/12/25 06:26:54;;;;;;;;;;;;;;;3.43;54.31;94274.50;4987575;28;20030;-66
2021/12/25 06:29:20;;;;;;;;;;;;;;;3.44;53.62;94276.16;4987893;28;20537;-65
2021/12/25 06:31:46;;;;;;;;;;;;;;;3.43;53.82;94283.22;4986630;28;20486;-65
2021/12/25 06:34:11;;;;;;;;;;;;;;;3.38;52.71;94279.44;4987705;28;20148;-65
2021/12/25 06:36:36;;;;;;;;;;;;;;;3.38;53.14;94284.69;4987696;28;19966;-66
2021/12/25 06:39:02;;;;;;;;;;;;;;;3.36;52.74;94282.22;4987214;28;20417;-64
2021/12/25 06:41:28;;;;;;;;;;;;;;;3.23;50.90;94287.97;4986870;28;19990;-65
2021/12/25 06:43:53;;;;;;;;;;;;;;;3.12;53.99;94285.69;4985920;28;20028;-66
2021/12/25 06:46:19;;;;;;;;;;;;;;;3.02;52.57;94285.84;4985099;28;20091;-65
2021/12/25 06:48:44;;;;;;;;;;;;;;;3.00;52.68;94287.81;4987497;28;20370;-66
2021/12/25 06:51:09;;;;;;;;;;;;;;;2.97;54.82;94290.78;4986723;28;20017;-64
2021/12/25 06:53:35;;;;;;;;;;;;;;;2.85;52.82;94292.88;4985447;28;20442;-65
2021/12/25 06:56:00;;;;;;;;;;;;;;;2.75;53.27;94280.72;4986730;28;19994;-65
2021/12/25 06:58:25;;;;;;;;;;;;;;;2.77;53.88;94285.81;4986538;28;19990;-64
2021/12/25 07:00:51;;;;;;;;;;;;;;;2.69;53.59;94291.88;4987033;28;20097;-64
2021/12/25 07:03:16;;;;;;;;;;;;;;;2.56;54.30;94295.00;4986064;28;20417;-65
2021/12/25 07:05:41;;;;;;;;;;;;;;;2.62;52.07;94299.59;4986902;28;20462;-65
2021/12/25 07:08:07;;;;;;;;;;;;;;;2.57;54.69;94298.41;4987034;28;19970;-65
2021/12/25 07:10:32;;;;;;;;;;;;;;;2.57;54.12;94304.50;4986197;28;20001;-65
2021/12/25 07:12:57;;;;;;;;;;;;;;;2.49;54.15;94305.28;4986495;28;20054;-66
2021/12/25 07:15:22;;;;;;;;;;;;;;;2.54;54.87;94307.44;4986230;28;19994;-66
2021/12/25 07:17:48;;;;;;;;;;;;;;;2.48;55.24;94315.97;4985869;28;19970;-65
2021/12/25 07:20:13;;;;;;;;;;;;;;;2.48;53.03;94313.31;4986023;28;19974;-66
2021/12/25 07:22:38;;;;;;;;;;;;;;;2.45;55.45;94324.19;4986594;28;20009;-66
2021/12/25 07:25:04;;;;;;;;;;;;;;;2.30;51.13;94319.53;4985522;28;20057;-64
2021/12/25 07:27:29;;;;;;;;;;;;;;;2.18;52.60;94323.41;4984159;28;20294;-66
2021/12/25 07:29:55;;;;;;;;;;;;;;;2.33;55.43;94323.63;4986325;28;19981;-64
2021/12/25 07:32:20;;;;;;;;;;;;;;;2.28;52.23;94329.34;4985869;28;20164;-65
2021/12/25 07:34:50;;;;;;;;;;;;;;;2.22;55.68;94335.25;4985972;28;20021;-66
2021/12/25 07:37:16;;;;;;;;;;;;;;;2.14;54.62;94330.78;4985396;28;19971;-66
2021/12/25 07:39:41;;;;;;;;;;;;;;;2.11;53.44;94339.78;4985863;28;20000;-65
2021/12/25 07:42:07;;;;;;;;;;;;;;;2.19;55.03;94339.03;4985965;28;20136;-66
2021/12/25 07:44:32;;;;;;;;;;;;;;;2.10;56.14;94340.78;4985857;28;19977;-65
2021/12/25 07:46:57;;;;;;;;;;;;;;;1.97;54.78;94341.19;4986446;28;20245;-65
2021/12/25 07:49:22;;;;;;;;;;;;;;;2.06;53.38;94346.50;4985778;28;19978;-66
2021/12/25 07:51:48;;;;;;;;;;;;;;;1.93;56.15;94352.16;4984651;28;20315;-65
2021/12/25 07:54:13;;;;;;;;;;;;;;;2.04;54.07;94348.47;4985250;28;19990;-65
2021/12/25 07:56:39;;;;;;;;;;;;;;;1.96;51.86;94359.72;4985158;28;20073;-65
2021/12/25 07:59:04;;;;;;;;;;;;;;;1.95;53.03;94355.47;4985040;28;20044;-64
2021/12/25 08:01:31;;;;;;;;;;;;;;;1.84;52.33;94361.81;4986058;28;19994;-66
2021/12/25 08:03:56;;;;;;;;;;;;;;;1.79;54.96;94361.41;4985465;28;20290;-65
2021/12/25 08:06:21;;;;;;;;;;;;;;;1.85;54.14;94369.53;4984828;28;19997;-66
2021/12/25 08:08:49;;;;;;;;;;;;;;;1.76;54.85;94365.19;4985859;28;19978;-65
2021/12/25 08:11:14;;;;;;;;;;;;;;;1.83;56.06;94374.09;4985394;28;20371;-65
2021/12/25 08:13:40;;;;;;;;;;;;;;;1.87;53.25;94379.84;4973852;28;19979;-66
2021/12/25 08:16:05;;;;;;;;;;;;;;;1.85;55.52;94374.78;4985299;28;20451;-64
2021/12/25 08:18:31;;;;;;;;;;;;;;;1.92;57.13;94376.75;4984935;28;20511;-65
2021/12/25 08:20:56;;;;;;;;;;;;;;;1.78;56.81;94372.91;4984407;28;20060;-65
2021/12/25 08:23:21;;;;;;;;;;;;;;;1.90;55.52;94373.47;4985396;28;20443;-65
2021/12/25 08:25:47;;;;;;;;;;;;;;;1.98;56.83;94376.97;4985208;28;20060;-65
2021/12/25 08:28:12;;;;;;;;;;;;;;;2.03;56.31;94370.41;4985448;28;20022;-65
2021/12/25 08:30:37;;;;;;;;;;;;;;;2.04;56.15;94378.16;4984832;28;20495;-65
2021/12/25 08:33:03;;;;;;;;;;;;;;;2.13;55.93;94379.84;4985582;28;20350;-66
2021/12/25 08:35:29;;;;;;;;;;;;;;;2.08;55.86;94389.97;4984383;28;20141;-65
2021/12/25 08:37:54;;;;;;;;;;;;;;;2.08;56.24;94389.97;4983545;28;20096;-65
2021/12/25 08:40:20;;;;;;;;;;;;;;;2.03;55.61;94394.88;4985042;28;20362;-66
2021/12/25 08:42:48;;;;;;;;;;;;;;;2.01;53.36;94394.22;4984670;28;20000;-65
2021/12/25 08:45:38;;;;;;;;;;;;;;;2.08;55.64;94389.97;4983956;28;20065;-64
2021/12/25 08:47:59;;;;;;;;;;;;;;;2.21;54.88;94396.66;4982673;28;19986;-66
2021/12/25 08:50:25;;;;;;;;;;;;;;;2.23;54.08;94400.75;4984784;28;20466;-65
2021/12/25 08:52:50;;;;;;;;;;;;;;;2.30;54.78;94408.81;4976124;28;19979;-66
2021/12/25 08:55:15;;;;;;;;;;;;;;;2.29;55.06;94416.84;4983742;28;19994;-66
2021/12/25 08:57:40;;;;;;;;;;;;;;;2.31;55.11;94407.03;4985005;28;20514;-66
2021/12/25 09:00:06;;;;;;;;;;;;;;;2.26;51.97;94408.31;4984372;28;20001;-64
2021/12/25 09:02:31;;;;;;;;;;;;;;;2.32;55.43;94412.13;4971243;28;20005;-65
2021/12/25 09:04:57;;;;;;;;;;;;;;;2.42;55.05;94412.03;4984760;28;20001;-66
2021/12/25 09:07:22;;;;;;;;;;;;;;;2.30;53.93;94408.00;4984605;28;19998;-64
2021/12/25 09:09:48;;;;;;;;;;;;;;;2.44;50.75;94420.56;4984213;28;19997;-66
2021/12/25 09:12:15;;;;;;;;;;;;;;;2.30;54.83;94414.09;4984563;28;20424;-66
2021/12/25 09:14:41;;;;;;;;;;;;;;;2.36;55.35;94416.09;4983528;28;19998;-66
2021/12/25 09:17:08;;;;;;;;;;;;;;;2.21;54.29;94421.09;4984230;28;19997;-64
2021/12/25 09:19:33;;;;;;;;;;;;;;;2.36;53.15;94423.97;4983930;28;20382;-65
2021/12/25 09:21:58;;;;;;;;;;;;;;;2.30;51.62;94421.97;4984295;28;20203;-66
2021/12/25 09:24:25;;;;;;;;;;;;;;;2.35;54.57;94424.13;4984609;28;19974;-66
2021/12/25 09:26:50;;;;;;;;;;;;;;;2.36;52.28;94428.41;4984471;28;19990;-65
2021/12/25 09:29:15;;;;;;;;;;;;;;;2.30;54.68;94435.09;4984546;28;20089;-66
2021/12/25 09:31:40;;;;;;;;;;;;;;;2.36;51.64;94434.50;4984193;28;19998;-66
2021/12/25 09:34:06;;;;;;;;;;;;;;;2.42;53.61;94432.22;4983926;28;20443;-66
2021/12/25 09:36:32;;;;;;;;;;;;;;;2.40;52.86;94427.09;4984395;28;20440;-65
2021/12/25 09:38:57;;;;;;;;;;;;;;;2.42;50.75;94437.47;4983898;28;20278;-65
2021/12/25 09:41:22;;;;;;;;;;;;;;;2.47;54.63;94437.81;4984375;28;20347;-66
2021/12/25 09:43:48;;;;;;;;;;;;;;;2.52;52.06;94443.44;4984054;28;20045;-66
2021/12/25 09:46:14;;;;;;;;;;;;;;;2.27;51.19;94443.28;4984377;28;20455;-66
2021/12/25 09:48:39;;;;;;;;;;;;;;;2.55;54.74;94442.28;4983688;28;20356;-66
2021/12/25 09:51:05;;;;;;;;;;;;;;;2.30;51.13;94448.22;4985379;28;20576;-66
2021/12/25 09:53:31;;;;;;;;;;;;;;;2.33;52.75;94440.03;4988456;28;20446;-66
2021/12/25 09:55:57;;;;;;;;;;;;;;;2.20;48.19;94437.00;4987356;28;20085;-65
2021/12/25 09:58:22;;;;;;;;;;;;;;;2.32;54.18;94438.41;4987693;28;20089;-66
2021/12/25 10:00:48;;;;;;;;;;;;;;;2.24;47.79;94439.16;4987683;28;20081;-66
2021/12/25 10:03:13;;;;;;;;;;;;;;;2.11;50.69;94431.69;4985952;28;19990;-66
2021/12/25 10:05:41;;;;;;;;;;;;;;;2.29;53.11;94437.88;4986574;28;20462;-66
2021/12/25 10:08:13;;;;;;;;;;;;;;;2.44;53.11;94440.75;4987478;28;19998;-66
2021/12/25 10:10:41;;;;;;;;;;;;;;;2.53;54.49;94448.50;5002346;28;19993;-66
2021/12/25 10:13:37;;;;;;;;;;;;;;;2.37;50.44;94440.53;4986193;28;20073;-66
2021/12/25 10:16:22;;;;;;;;;;;;;;;2.29;52.49;94443.97;4982333;28;20545;-66
2021/12/25 10:18:47;;;;;;;;;;;;;;;2.33;54.06;94440.03;4985165;28;20084;-66
2021/12/25 10:21:23;;;;;;;;;;;;;;;2.36;51.76;94439.75;4987626;28;20097;-65
2021/12/25 10:24:02;;;;;;;;;;;;;;;2.44;53.26;94436.31;4986498;28;20018;-66
2021/12/25 10:26:27;;;;;;;;;;;;;;;2.42;53.40;94434.84;4985702;28;20449;-66
2021/12/25 10:28:52;;;;;;;;;;;;;;;2.34;53.17;94436.44;4987656;28;19967;-66
2021/12/25 10:31:18;;;;;;;;;;;;;;;2.41;49.82;94431.38;4986646;28;20456;-66
2021/12/25 10:33:50;;;;;;;;;;;;;;;2.38;45.62;94427.25;4986166;28;20076;-66
2021/12/25 10:36:24;;;;;;;;;;;;;;;2.38;53.84;94432.50;4986954;28;19990;-66
2021/12/25 10:38:57;;;;;;;;;;;;;;;2.47;52.27;94428.13;4986812;28;20265;-64
2021/12/25 10:41:22;;;;;;;;;;;;;;;2.40;50.34;94429.72;4987184;28;19994;-66
2021/12/25 10:43:49;;;;;;;;;;;;;;;2.35;50.93;94422.31;4987263;28;19990;-65
2021/12/25 10:46:14;;;;;;;;;;;;;;;2.33;49.99;94418.19;4986779;28;20032;-65
2021/12/25 10:48:39;;;;;;;;;;;;;;;2.52;52.93;94423.22;4987397;28;20028;-66
2021/12/25 10:51:05;;;;;;;;;;;;;;;2.72;49.98;94422.97;4986337;28;20488;-66
2021/12/25 10:53:42;;;;;;;;;;;;;;;2.84;50.13;94428.78;4987357;28;20051;-65
2021/12/25 10:56:12;;;;;;;;;;;;;;;2.78;51.61;94432.03;4979373;28;20000;-67
2021/12/25 10:58:37;;;;;;;;;;;;;;;2.66;46.67;94434.13;4986514;28;19986;-66
2021/12/25 11:01:03;;;;;;;;;;;;;;;2.71;51.59;94431.84;4986794;28;19997;-66
2021/12/25 11:03:32;;;;;;;;;;;;;;;2.75;49.09;94435.81;4986736;28;20246;-65
2021/12/25 11:06:02;;;;;;;;;;;;;;;2.85;52.39;94438.31;4986750;28;19978;-65
2021/12/25 11:08:29;;;;;;;;;;;;;;;2.57;49.43;94433.28;4986537;28;20790;-65
2021/12/25 11:10:55;;;;;;;;;;;;;;;2.34;45.63;94433.81;4986801;28;20033;-65
2021/12/25 11:13:23;;;;;;;;;;;;;;;2.31;49.73;94438.56;4987010;28;20052;-66
2021/12/25 11:15:49;;;;;;;;;;;;;;;2.33;51.64;94439.22;4984870;28;19989;-66
2021/12/25 11:18:15;;;;;;;;;;;;;;;2.46;53.50;94433.53;4986602;28;20435;-66
2021/12/25 11:20:41;;;;;;;;;;;;;;;2.26;51.60;94437.22;4984258;28;19994;-66
2021/12/25 11:23:07;;;;;;;;;;;;;;;2.24;51.32;94430.44;4977342;28;19993;-65
2021/12/25 11:25:32;;;;;;;;;;;;;;;2.39;51.98;94434.16;4986607;28;19981;-66
2021/12/25 11:27:58;;;;;;;;;;;;;;;2.23;48.40;94432.28;4985764;28;19990;-66
2021/12/25 11:30:24;;;;;;;;;;;;;;;2.11;52.99;94441.41;4986444;28;20069;-66
2021/12/25 11:32:50;;;;;;;;;;;;;;;2.19;48.96;94440.59;4986633;28;19978;-67
2021/12/25 11:35:15;;;;;;;;;;;;;;;2.26;52.90;94439.84;4985900;28;20576;-66
2021/12/25 11:37:41;;;;;;;;;;;;;;;2.12;49.01;94438.59;4985998;28;20390;-64
2021/12/25 11:40:07;;;;;;;;;;;;;;;2.00;53.47;94445.06;4984949;28;20395;-66
2021/12/25 11:42:33;;;;;;;;;;;;;;;1.98;46.75;94441.78;4985882;28;20447;-66
2021/12/25 11:45:08;;;;;;;;;;;;;;;2.11;53.12;94428.25;4979380;28;20186;-66
2021/12/25 11:47:36;;;;;;;;;;;;;;;2.04;52.34;94445.59;4979106;28;20354;-66
2021/12/25 11:50:03;;;;;;;;;;;;;;;2.05;53.12;94449.88;4981563;28;20374;-64
2021/12/25 11:52:34;;;;;;;;;;;;;;;1.97;51.54;94443.56;4981845;28;20084;-65
2021/12/25 11:55:30;;;;;;;;;;;;;;;2.03;52.73;94442.16;4982882;28;20005;-65
2021/12/25 12:00:44;;;;;;;;;;;;;;;2.01;42.07;94447.53;4982730;28;19998;-66
2021/12/25 12:03:09;;;;;;;;;;;;;;;1.84;42.17;94445.78;4983952;28;20036;-65
2021/12/25 12:05:35;;;;;;;;;;;;;;;1.99;41.21;94435.56;4992600;28;19970;-65
2021/12/25 12:08:05;;;;;;;;;;;;;;;1.98;40.94;94439.97;4982919;28;19998;-65
2021/12/25 12:10:45;;;;;;;;;;;;;;;1.76;41.96;94430.78;4976183;28;20064;-64
2021/12/25 12:13:30;;;;;;;;;;;;;;;1.66;42.07;94433.50;4984308;28;20413;-66
2021/12/25 12:15:56;;;;;;;;;;;;;;;1.36;42.73;94425.00;4984864;28;20458;-65
2021/12/25 12:18:24;;;;;;;;;;;;;;;1.57;42.67;94437.84;4985860;28;20359;-65
2021/12/25 12:20:50;;;;;;;;;;;;;;;1.58;42.39;94429.03;4983317;28;19990;-65
2021/12/25 12:26:44;;;;;;;;;;;;;;;1.42;41.94;94434.06;4955713;28;20375;-76
2021/12/25 12:29:09;;;;;;;;;;;;;;;0.94;43.36;94434.25;4955279;28;19986;-76
2021/12/25 12:31:35;;;;;;;;;;;;;;;1.03;42.58;94437.78;4965091;28;19990;-76
2021/12/25 12:34:01;;;;;;;;;;;;;;;0.75;44.89;94443.88;4983988;28;19994;-76
2021/12/25 12:36:26;;;;;;;;;;;;;;;0.64;43.31;94442.28;4986049;28;19977;-76
2021/12/25 12:38:56;;;;;;;;;;;;;;;0.50;49.11;94437.50;4979426;28;20006;-76
2021/12/25 12:41:38;;;;;;;;;;;;;;;0.95;42.56;94439.34;4984109;28;19990;-76
2021/12/25 12:44:10;;;;;;;;;;;;;;;0.97;42.64;94439.22;4985608;28;20033;-76
2021/12/25 12:46:48;;;;;;;;;;;;;;;0.94;42.41;94442.94;4985285;28;19994;-76
2021/12/25 12:49:23;;;;;;;;;;;;;;;0.94;44.28;94442.13;4986043;28;19966;-76
2021/12/25 12:52:09;;;;;;;;;;;;;;;0.95;42.82;94444.59;4985795;28;19986;-76
2021/12/25 12:54:40;;;;;;;;;;;;;;;0.67;43.33;94452.47;4985310;28;20076;-76
2021/12/25 12:57:05;;;;;;;;;;;;;;;1.00;42.33;94451.19;4985718;28;20032;-76
2021/12/25 12:59:46;;;;;;;;;;;;;;;0.80;43.29;94456.53;4984704;28;20022;-76
2021/12/25 13:02:12;;;;;;;;;;;;;;;0.92;42.17;94463.22;4983458;28;20010;-76
2021/12/25 13:04:47;;;;;;;;;;;;;;;0.71;44.86;94455.59;4984135;28;20192;-76
2021/12/25 13:07:13;;;;;;;;;;;;;;;0.71;42.48;94453.00;4983855;28;20060;-76
2021/12/25 13:09:44;;;;;;;;;;;;;;;0.75;42.39;94453.53;4982474;28;20569;-68
2021/12/25 13:12:20;;;;;;;;;;;;;;;0.71;42.55;94461.69;4984123;28;19998;-68
2021/12/25 13:14:56;;;;;;;;;;;;;;;0.53;44.50;94464.25;4984486;28;19985;-68
2021/12/25 13:17:21;;;;;;;;;;;;;;;0.36;42.99;94464.97;4981374;28;20817;-68
2021/12/25 13:19:47;;;;;;;;;;;;;;;0.29;43.65;94462.94;4984194;28;19962;-68
2021/12/25 13:22:12;;;;;;;;;;;;;;;0.40;44.41;94461.94;4984675;28;19998;-67
2021/12/25 13:24:37;;;;;;;;;;;;;;;0.47;43.36;94470.03;4983050;28;19966;-68
2021/12/25 13:27:03;;;;;;;;;;;;;;;0.39;44.09;94481.25;4987117;28;19986;-68
2021/12/25 13:29:28;;;;;;;;;;;;;;;0.01;44.13;94486.44;4980434;28;19974;-67
2021/12/25 13:31:53;;;;;;;;;;;;;;;0.08;43.78;94486.69;4984005;28;20651;-67
2021/12/25 13:34:20;;;;;;;;;;;;;;;0.10;43.93;94489.16;4983206;28;19994;-68
2021/12/25 13:36:47;;;;;;;;;;;;;;;-0.09;43.91;94491.69;4983505;28;20010;-68
2021/12/25 13:39:14;;;;;;;;;;;;;;;-0.09;43.94;94491.69;4984601;28;20494;-68
2021/12/25 13:41:39;;;;;;;;;;;;;;;-0.45;46.82;94484.38;4984633;28;20006;-68
2021/12/25 13:44:19;;;;;;;;;;;;;;;-0.49;45.42;94485.63;4985221;28;19970;-67
2021/12/25 13:46:46;;;;;;;;;;;;;;;-0.45;46.44;94492.22;4984517;28;19986;-68
2021/12/25 13:49:30;;;;;;;;;;;;;;;-0.40;45.50;94485.75;4987370;28;19985;-67
2021/12/25 13:51:56;;;;;;;;;;;;;;;-0.36;45.79;94484.50;4988221;28;20005;-67
2021/12/25 13:54:21;;;;;;;;;;;;;;;-0.50;45.16;94488.38;4988612;28;19997;-67
2021/12/25 13:56:47;;;;;;;;;;;;;;;-0.41;44.57;94486.72;4988894;28;19974;-67
2021/12/25 13:59:12;;;;;;;;;;;;;;;-0.45;44.83;94479.16;4988831;28;20001;-67
2021/12/25 14:01:37;;;;;;;;;;;;;;;-0.58;48.56;94476.81;4987358;28;20001;-68
2021/12/25 14:04:06;;;;;;;;;;;;;;;-0.85;47.20;94482.66;4988836;28;20060;-68